Time;durP1;ratioP1;P1;durP2;ratioP2;P2;SDS_P1;SDS_P2;PMS_P1;PMS_P2;Temp;Humidity;BMP_temperature;BMP_pressure;BME280_temperature;BME280_humidity;BME280_pressure;Samples;Min_cycle;Max_cycle;Signal;HPM_P1;HPM_P2
2021/08/03 00:01:24;;;;;;;2.88;2.65;;;;;;;15.74;60.20;101508.31;10478092;28;20094;-83
2021/08/03 00:06:24;;;;;;;6.93;2.80;;;;;;;15.69;60.04;101495.28;10460208;28;20032;-82
2021/08/03 00:11:26;;;;;;;6.90;3.22;;;;;;;15.67;59.83;101499.31;10442943;28;20036;-83
2021/08/03 00:16:26;;;;;;;3.20;2.17;;;;;;;15.62;60.21;101489.00;10477060;28;20044;-82
2021/08/03 00:21:27;;;;;;;6.13;2.65;;;;;;;15.41;60.69;101475.63;10461973;28;20466;-82
2021/08/03 00:26:29;;;;;;;6.25;3.92;;;;;;;15.40;60.37;101480.25;10462813;28;20028;-82
2021/08/03 00:31:30;;;;;;;8.98;2.45;;;;;;;15.37;60.43;101482.59;10475451;28;20420;-82
2021/08/03 00:36:32;;;;;;;10.32;2.90;;;;;;;15.30;60.60;101486.16;10476355;28;20044;-82
2021/08/03 00:42:11;;;;;;;4.63;2.20;;;;;;;15.06;59.62;101468.63;10474445;28;20079;-83
2021/08/03 00:47:12;;;;;;;3.25;2.90;;;;;;;15.20;61.21;101493.97;10347158;28;20452;-82
2021/08/03 00:52:14;;;;;;;3.97;2.90;;;;;;;15.09;60.56;101487.28;10333938;28;20105;-82
2021/08/03 00:57:14;;;;;;;11.02;3.70;;;;;;;15.03;62.34;101482.69;10347824;28;20132;-82
2021/08/03 01:02:15;;;;;;;4.40;3.55;;;;;;;15.04;61.75;101480.78;10348430;28;20061;-82
2021/08/03 01:07:21;;;;;;;8.68;2.83;;;;;;;14.87;61.61;101434.88;10367908;28;20045;-82
2021/08/03 01:12:45;;;;;;;5.45;4.05;;;;;;;15.10;60.40;101458.94;10361286;28;20034;-82
2021/08/03 01:18:10;;;;;;;3.10;2.90;;;;;;;15.06;60.44;101440.47;10432293;28;20055;-82
2021/08/03 01:23:44;;;;;;;4.28;3.88;;;;;;;15.13;60.43;101465.03;10478138;28;20436;-82
2021/08/03 01:28:49;;;;;;;6.32;3.15;;;;;;;14.69;61.70;101396.53;10462744;28;20229;-82
2021/08/03 01:34:14;;;;;;;6.32;3.70;;;;;;;15.08;60.68;101463.78;10480430;28;20036;-82
2021/08/03 01:39:16;;;;;;;4.95;2.72;;;;;;;14.89;61.76;101430.03;10351589;28;20049;-82
2021/08/03 01:44:18;;;;;;;4.15;2.25;;;;;;;14.97;61.56;101448.06;10369061;28;20059;-82
2021/08/03 01:49:20;;;;;;;3.13;2.83;;;;;;;15.07;61.78;101470.28;10322320;28;20049;-83
2021/08/03 01:54:20;;;;;;;3.25;2.83;;;;;;;14.80;61.50;101442.22;10341027;28;20526;-82
2021/08/03 01:59:22;;;;;;;5.82;3.00;;;;;;;13.96;61.37;101296.63;10358080;28;20130;-82
2021/08/03 02:04:24;;;;;;;3.13;2.78;;;;;;;14.91;61.47;101445.38;10328858;28;20048;-82
2021/08/03 02:09:24;;;;;;;4.95;3.42;;;;;;;15.02;61.02;101463.78;10428970;28;20111;-82
2021/08/03 02:14:25;;;;;;;2.97;2.75;;;;;;;14.97;61.61;101463.59;10445510;28;20430;-82
2021/08/03 02:19:25;;;;;;;8.93;3.63;;;;;;;14.90;62.05;101460.91;10446167;28;20037;-82
2021/08/03 02:24:26;;;;;;;4.22;2.75;;;;;;;14.85;61.77;101460.69;10462947;28;20049;-82
2021/08/03 02:29:26;;;;;;;15.25;3.42;;;;;;;14.93;62.49;101460.44;10428405;28;20041;-82
2021/08/03 02:34:31;;;;;;;10.65;3.22;;;;;;;14.97;61.59;101455.44;10434233;28;20422;-82
2021/08/03 02:39:31;;;;;;;3.63;3.25;;;;;;;14.79;62.06;101447.91;10434702;28;20425;-82
2021/08/03 02:44:33;;;;;;;3.78;2.75;;;;;;;14.75;61.47;101433.03;10476638;28;20130;-82
2021/08/03 02:49:47;;;;;;;2.80;2.60;;;;;;;14.61;61.75;101443.94;10459813;28;20131;-82
2021/08/03 02:54:58;;;;;;;4.47;3.15;;;;;;;14.64;61.25;101459.00;10463264;28;20151;-82
2021/08/03 03:00:00;;;;;;;4.32;2.80;;;;;;;14.54;61.92;101453.16;10478066;28;20040;-82
2021/08/03 03:05:04;;;;;;;3.17;2.75;;;;;;;14.45;61.87;101457.94;10443565;28;20040;-82
2021/08/03 03:10:09;;;;;;;5.47;3.05;;;;;;;14.21;62.29;101425.88;10460184;28;20141;-82
2021/08/03 03:15:09;;;;;;;6.70;3.22;;;;;;;14.32;62.92;101449.75;10459336;28;20033;-82
2021/08/03 03:20:10;;;;;;;4.60;2.95;;;;;;;13.84;62.65;101390.84;10474987;28;20395;-82
2021/08/03 03:25:20;;;;;;;6.45;2.70;;;;;;;14.18;62.50;101451.66;10458467;28;20040;-82
2021/08/03 03:30:21;;;;;;;4.30;3.00;;;;;;;14.25;62.93;101449.75;10474471;28;20029;-82
2021/08/03 03:35:21;;;;;;;3.25;2.50;;;;;;;14.15;62.81;101444.72;10495124;28;20040;-83
2021/08/03 03:40:22;;;;;;;16.58;4.05;;;;;;;14.23;63.09;101462.78;10460697;28;20060;-82
2021/08/03 03:45:23;;;;;;;6.65;3.05;;;;;;;14.19;63.51;101467.75;10496491;28;20037;-82
2021/08/03 03:50:30;;;;;;;7.30;4.65;;;;;;;14.16;62.42;101451.00;10445946;28;20040;-82
2021/08/03 03:55:30;;;;;;;5.18;4.57;;;;;;;14.16;62.79;101440.09;10461986;28;20089;-82
2021/08/03 04:00:34;;;;;;;3.67;3.45;;;;;;;14.06;63.15;101417.91;10446277;28;20116;-82
2021/08/03 04:05:36;;;;;;;5.05;3.80;;;;;;;14.21;63.28;101439.50;10480449;28;20048;-82
2021/08/03 04:10:37;;;;;;;4.35;3.97;;;;;;;14.23;63.06;101434.66;10460534;28;20032;-82
2021/08/03 04:15:37;;;;;;;8.45;3.95;;;;;;;14.24;62.99;101439.91;10474679;28;20136;-82
2021/08/03 04:20:38;;;;;;;5.18;3.75;;;;;;;14.16;63.19;101419.16;10474357;28;20473;-83
2021/08/03 04:25:43;;;;;;;7.90;3.90;;;;;;;13.94;62.56;101368.66;10476080;28;20482;-82
2021/08/03 04:30:43;;;;;;;6.28;4.50;;;;;;;14.54;63.15;101440.34;10474365;28;20025;-81
2021/08/03 04:35:44;;;;;;;5.60;4.60;;;;;;;14.67;63.93;101436.78;10475550;28;20113;-81
2021/08/03 04:40:44;;;;;;;9.63;4.88;;;;;;;14.48;63.35;101386.66;10471700;28;20064;-81
2021/08/03 04:45:45;;;;;;;4.93;4.50;;;;;;;14.86;63.15;101414.09;10450699;28;20104;-81
2021/08/03 04:50:46;;;;;;;7.95;4.68;;;;;;;15.03;62.91;101419.13;10468797;28;20066;-81
2021/08/03 04:55:46;;;;;;;9.65;4.15;;;;;;;15.17;62.57;101420.72;10487812;28;20054;-82
2021/08/03 05:00:47;;;;;;;8.13;6.45;;;;;;;14.92;62.82;101366.06;10406920;28;20079;-82
2021/08/03 05:05:47;;;;;;;8.10;6.20;;;;;;;15.36;62.49;101418.97;10485025;28;20123;-81
2021/08/03 05:10:48;;;;;;;6.68;5.30;;;;;;;15.55;62.48;101423.50;10451633;28;20127;-83
2021/08/03 05:15:50;;;;;;;6.75;4.88;;;;;;;15.97;62.47;101425.81;10486162;28;20045;-81
2021/08/03 05:20:50;;;;;;;9.55;5.15;;;;;;;17.05;60.95;101416.47;10466245;28;20075;-82
2021/08/03 05:25:51;;;;;;;6.60;4.50;;;;;;;17.52;59.29;101373.78;10484383;28;20388;-82
2021/08/03 05:30:52;;;;;;;10.30;5.43;;;;;;;18.22;58.28;101410.66;10450180;28;20115;-82
2021/08/03 05:35:52;;;;;;;10.02;5.20;;;;;;;18.67;56.82;101416.44;10489320;28;20414;-83
2021/08/03 05:40:54;;;;;;;4.50;4.13;;;;;;;19.25;56.60;101392.75;10468878;28;20202;-82
2021/08/03 05:45:55;;;;;;;8.50;3.85;;;;;;;20.12;54.58;101408.97;10486226;28;20066;-83
2021/08/03 05:50:56;;;;;;;4.05;3.45;;;;;;;20.47;53.21;101390.56;10468547;28;20211;-83
2021/08/03 05:55:57;;;;;;;8.25;3.45;;;;;;;20.52;53.25;101419.03;10486023;28;20041;-83
2021/08/03 06:00:57;;;;;;;7.32;3.83;;;;;;;20.93;52.90;101407.75;10468408;28;20064;-82
2021/08/03 06:05:58;;;;;;;8.07;3.45;;;;;;;21.31;52.51;101409.63;10471778;28;20131;-83
2021/08/03 06:10:58;;;;;;;3.53;3.00;;;;;;;20.82;52.49;101346.25;10456517;28;21910;-83
2021/08/03 06:16:00;;;;;;;2.38;2.28;;;;;;;21.27;52.52;101394.72;10471383;28;20120;-83
2021/08/03 06:21:00;;;;;;;17.58;3.78;;;;;;;21.40;53.09;101408.13;10469606;28;20040;-83
2021/08/03 06:26:01;;;;;;;3.22;2.03;;;;;;;21.90;52.02;101417.22;10452821;28;20049;-83
2021/08/03 06:31:02;;;;;;;2.28;2.17;;;;;;;21.62;51.28;101407.28;10470021;28;20024;-83
2021/08/03 06:36:03;;;;;;;2.70;1.77;;;;;;;21.72;52.01;101399.94;10452381;28;20146;-84
2021/08/03 06:41:08;;;;;;;4.95;1.75;;;;;;;23.24;49.80;101404.13;10472846;28;20067;-83
2021/08/03 06:46:09;;;;;;;2.60;2.40;;;;;;;24.32;48.00;101406.03;10460956;28;20029;-83
2021/08/03 06:51:12;;;;;;;1.50;1.40;;;;;;;22.64;49.54;101345.53;10460209;28;20123;-84
2021/08/03 06:56:25;;;;;;;7.70;1.67;;;;;;;22.44;51.20;101398.69;10473208;28;20114;-83
2021/08/03 07:01:35;;;;;;;6.80;2.33;;;;;;;22.43;51.69;101405.31;10454225;28;20060;-83
2021/08/03 07:06:36;;;;;;;2.05;1.85;;;;;;;22.68;49.70;101356.88;10471333;28;20475;-83
2021/08/03 07:11:36;;;;;;;2.70;1.50;;;;;;;24.34;48.08;101337.34;10474787;28;20139;-83
2021/08/03 07:16:38;;;;;;;1.27;1.17;;;;;;;25.56;45.82;101399.06;10477001;28;20082;-83
2021/08/03 07:21:39;;;;;;;1.30;1.23;;;;;;;25.77;45.87;101396.16;10460181;28;20070;-83
2021/08/03 07:26:40;;;;;;;5.65;2.28;;;;;;;26.58;43.25;101406.66;10494301;28;20435;-83
2021/08/03 07:31:43;;;;;;;4.13;1.25;;;;;;;25.10;43.27;101399.22;10445143;28;20124;-83
2021/08/03 07:36:44;;;;;;;1.95;1.25;;;;;;;24.20;44.52;101388.88;10462130;28;20131;-84
2021/08/03 07:41:44;;;;;;;1.02;1.02;;;;;;;23.26;47.35;101393.66;10461278;28;20063;-84
2021/08/03 07:46:45;;;;;;;2.47;1.40;;;;;;;23.40;48.25;101391.22;10499357;28;20089;-84
2021/08/03 07:51:46;;;;;;;1.20;1.20;;;;;;;23.34;47.69;101393.13;10476977;28;20056;-84
2021/08/03 07:56:47;;;;;;;3.35;1.55;;;;;;;23.56;48.92;101376.31;10461807;28;20413;-85
2021/08/03 08:01:47;;;;;;;1.38;1.27;;;;;;;23.46;47.67;101387.34;10478415;28;20123;-85
2021/08/03 08:06:48;;;;;;;3.20;1.85;;;;;;;23.30;46.56;101358.84;10459620;28;20448;-84
2021/08/03 08:11:48;;;;;;;1.83;1.70;;;;;;;22.95;51.04;101379.69;10476921;28;20414;-84
2021/08/03 08:16:48;;;;;;;1.45;1.40;;;;;;;22.77;48.01;101388.41;10476446;28;20040;-84
2021/08/03 08:21:49;;;;;;;1.63;1.50;;;;;;;22.58;49.65;101390.75;10477370;28;20452;-84
2021/08/03 08:26:50;;;;;;;2.40;1.75;;;;;;;22.59;50.70;101397.97;10494653;28;20085;-83
2021/08/03 08:31:51;;;;;;;1.90;1.77;;;;;;;22.48;48.80;101275.63;10494134;28;20122;-83
2021/08/03 08:36:52;;;;;;;4.03;1.98;;;;;;;22.74;49.39;101391.69;10480447;28;20032;-84
2021/08/03 08:41:52;;;;;;;1.67;1.38;;;;;;;22.47;49.69;101392.63;10497252;28;20106;-84
2021/08/03 08:46:54;;;;;;;2.00;1.55;;;;;;;22.12;50.17;101392.34;10478181;28;20082;-84
2021/08/03 08:51:55;;;;;;;1.92;1.83;;;;;;;22.02;50.07;101399.41;10495666;28;20043;-83
2021/08/03 08:56:55;;;;;;;2.90;1.45;;;;;;;21.95;49.48;101385.03;10479589;28;20513;-83
2021/08/03 09:01:56;;;;;;;1.90;1.50;;;;;;;22.66;49.51;101403.25;10480286;28;20183;-84
2021/08/03 09:07:03;;;;;;;1.50;1.38;;;;;;;22.77;51.25;101393.91;10479191;28;20116;-83
2021/08/03 09:12:04;;;;;;;13.13;4.13;;;;;;;24.25;46.85;101325.22;10477135;28;20043;-81
2021/08/03 09:17:04;;;;;;;2.35;1.88;;;;;;;25.35;45.51;101364.25;10494432;28;20048;-82
2021/08/03 09:22:16;;;;;;;7.38;2.42;;;;;;;24.76;46.88;101286.34;10494817;28;20036;-83
2021/08/03 09:27:39;;;;;;;2.17;1.48;;;;;;;25.17;50.73;101358.22;10475418;28;20123;-82
2021/08/03 09:32:40;;;;;;;3.50;1.98;;;;;;;24.09;47.40;101387.19;10478541;28;20120;-82
2021/08/03 09:37:41;;;;;;;2.28;1.88;;;;;;;24.43;45.83;101353.44;10461146;28;20082;-82
2021/08/03 09:42:42;;;;;;;5.40;2.17;;;;;;;23.96;45.43;101365.63;10478249;28;20057;-83
2021/08/03 09:47:43;;;;;;;5.05;1.63;;;;;;;23.67;47.24;101358.66;10495814;28;20383;-83
2021/08/03 09:52:43;;;;;;;2.10;1.75;;;;;;;23.78;47.47;101389.94;10459246;28;20035;-83
2021/08/03 09:57:44;;;;;;;2.97;1.83;;;;;;;23.42;46.79;101384.31;10475067;28;20130;-83
2021/08/03 10:02:45;;;;;;;1.85;1.52;;;;;;;23.17;45.99;101389.75;10479699;28;20036;-82
2021/08/03 10:07:45;;;;;;;1.60;1.50;;;;;;;23.28;46.58;101372.09;10472686;28;20041;-83
2021/08/03 10:12:46;;;;;;;2.17;1.92;;;;;;;23.58;48.68;101370.50;10499365;28;20060;-83
2021/08/03 10:17:46;;;;;;;1.70;1.60;;;;;;;23.48;47.49;101376.84;10490652;28;20028;-84
2021/08/03 10:23:03;;;;;;;2.67;1.30;;;;;;;23.79;49.43;101380.53;10483622;28;20488;-83
2021/08/03 10:28:18;;;;;;;6.75;2.35;;;;;;;23.91;49.65;101388.59;10481641;28;20472;-83
2021/08/03 10:33:40;;;;;;;9.27;2.85;;;;;;;23.71;49.45;101386.63;10496639;28;20039;-83
2021/08/03 10:38:41;;;;;;;2.13;1.92;;;;;;;23.78;46.44;101373.34;10498137;28;20110;-84
2021/08/03 10:43:48;;;;;;;1.48;1.38;;;;;;;23.41;46.67;101285.06;10465563;28;20483;-83
2021/08/03 10:48:53;;;;;;;0.88;0.88;;;;;;;23.84;46.51;101352.91;10481644;28;20033;-83
2021/08/03 10:54:02;;;;;;;2.03;1.15;;;;;;;24.37;48.07;101372.78;10503026;28;20041;-83
2021/08/03 10:59:32;;;;;;;10.15;1.58;;;;;;;24.91;49.04;101365.78;10481704;28;20079;-82
2021/08/03 11:04:42;;;;;;;3.55;1.90;;;;;;;25.74;44.76;101361.47;10499777;28;20035;-82
2021/08/03 11:09:44;;;;;;;2.45;2.22;;;;;;;26.70;44.42;101352.63;10481727;28;20107;-83
2021/08/03 11:14:44;;;;;;;5.45;2.55;;;;;;;26.60;42.29;101357.16;10480743;28;20505;-84
2021/08/03 11:19:44;;;;;;;3.03;2.35;;;;;;;26.21;42.29;101360.03;10498791;28;20118;-83
2021/08/03 11:24:45;;;;;;;1.92;1.83;;;;;;;26.16;42.72;101351.75;10481262;28;20119;-82
2021/08/03 11:29:46;;;;;;;2.50;2.10;;;;;;;25.93;43.84;101350.56;10498571;28;20036;-83
2021/08/03 11:34:48;;;;;;;3.88;1.95;;;;;;;25.93;43.43;101328.34;10498914;28;20029;-83
2021/08/03 11:39:58;;;;;;;10.23;3.00;;;;;;;26.05;46.81;101356.56;10481222;28;20058;-83
2021/08/03 11:45:16;;;;;;;2.17;1.98;;;;;;;27.70;42.80;101350.78;10477515;28;20024;-82
2021/08/03 11:50:28;;;;;;;10.18;2.72;;;;;;;27.43;41.90;101340.31;10476531;28;20391;-82
2021/08/03 11:55:28;;;;;;;2.20;2.10;;;;;;;27.19;39.59;101340.38;10475159;28;20103;-82
2021/08/03 12:00:29;;;;;;;1.77;1.67;;;;;;;27.59;43.25;101320.31;10460265;28;20053;-82
2021/08/03 12:05:33;;;;;;;2.03;1.92;;;;;;;27.10;41.18;101260.38;10475807;28;20037;-83
2021/08/03 12:10:38;;;;;;;2.75;2.38;;;;;;;27.50;41.68;101319.31;10458687;28;20033;-84
2021/08/03 12:15:47;;;;;;;2.60;2.13;;;;;;;27.94;40.57;101237.38;10472734;28;20033;-82
2021/08/03 12:20:50;;;;;;;12.07;2.30;;;;;;;29.36;38.35;101313.66;10472471;28;20032;-83
2021/08/03 12:25:53;;;;;;;2.88;2.38;;;;;;;30.17;37.71;101286.81;10490218;28;20482;-82
2021/08/03 12:30:54;;;;;;;2.25;2.15;;;;;;;30.80;35.17;101316.41;10472049;28;20428;-82
2021/08/03 12:36:10;;;;;;;2.58;1.67;;;;;;;30.55;43.57;101236.88;10471457;28;20044;-82
2021/08/03 12:41:18;;;;;;;9.68;2.00;;;;;;;30.47;39.26;101319.53;10455973;28;20047;-82
2021/08/03 12:46:18;;;;;;;8.70;2.67;;;;;;;30.24;34.46;101306.75;10472016;28;20101;-82
2021/08/03 12:51:27;;;;;;;3.85;1.70;;;;;;;29.70;39.63;101309.50;10489125;28;20024;-83
2021/08/03 12:56:36;;;;;;;2.67;2.22;;;;;;;29.10;37.59;101249.25;10488740;28;20484;-83
2021/08/03 13:01:36;;;;;;;9.63;2.53;;;;;;;27.47;43.77;101316.31;10457518;28;20351;-83
2021/08/03 13:06:57;;;;;;;2.63;2.42;;;;;;;27.45;40.14;101308.28;10491707;28;20083;-83
2021/08/03 13:11:58;;;;;;;3.53;2.10;;;;;;;28.21;38.64;101313.75;10459791;28;20498;-83
2021/08/03 13:16:58;;;;;;;2.80;2.55;;;;;;;27.82;37.66;101248.16;10458912;28;20422;-83
2021/08/03 13:21:59;;;;;;;1.65;1.55;;;;;;;28.96;37.56;101313.38;10494005;28;20094;-83
2021/08/03 13:27:00;;;;;;;11.07;2.20;;;;;;;30.52;36.48;101310.19;10459688;28;20317;-82
2021/08/03 13:32:00;;;;;;;5.80;2.25;;;;;;;30.15;35.90;101305.84;10475010;28;20139;-82
2021/08/03 13:37:01;;;;;;;3.47;3.15;;;;;;;29.15;37.69;101301.28;10494254;28;20152;-83
2021/08/03 13:42:01;;;;;;;13.10;2.13;;;;;;;28.07;40.09;101254.41;10492324;28;20154;-82
2021/08/03 13:47:02;;;;;;;1.70;1.60;;;;;;;27.58;40.00;101296.41;10493698;28;20088;-83
2021/08/03 13:52:03;;;;;;;1.83;1.48;;;;;;;27.02;39.79;101319.41;10474671;28;20059;-83
2021/08/03 13:57:04;;;;;;;2.25;2.05;;;;;;;26.43;39.06;101198.47;10476858;28;20081;-83
2021/08/03 14:02:05;;;;;;;2.10;1.92;;;;;;;27.92;38.65;101308.41;10476766;28;20085;-82
2021/08/03 14:07:06;;;;;;;7.90;2.03;;;;;;;28.66;40.52;101305.66;10476815;28;20040;-83
2021/08/03 14:12:06;;;;;;;2.85;1.55;;;;;;;29.10;35.98;101305.03;10478916;28;20032;-83
2021/08/03 14:17:08;;;;;;;2.08;1.90;;;;;;;28.92;37.13;101304.00;10459930;28;20036;-83
2021/08/03 14:22:09;;;;;;;2.75;2.05;;;;;;;28.04;37.74;101189.84;10493492;28;20059;-83
2021/08/03 14:27:09;;;;;;;1.05;1.05;;;;;;;28.65;38.09;101301.22;10494687;28;20064;-83
2021/08/03 14:32:10;;;;;;;2.05;1.95;;;;;;;28.21;36.95;101311.78;10493926;28;20056;-82
2021/08/03 14:37:10;;;;;;;3.95;2.42;;;;;;;27.85;37.96;101296.84;10463430;28;20183;-83
2021/08/03 14:42:11;;;;;;;1.95;1.83;;;;;;;28.04;37.92;101228.81;10476106;28;20476;-83
2021/08/03 14:47:11;;;;;;;1.38;1.33;;;;;;;28.55;38.28;101299.47;10494375;28;20448;-83
2021/08/03 14:52:12;;;;;;;2.22;2.03;;;;;;;27.88;38.28;101255.28;10476013;28;20024;-83
2021/08/03 14:57:12;;;;;;;4.55;2.63;;;;;;;27.16;38.56;101299.28;10473632;28;20074;-82
2021/08/03 15:02:12;;;;;;;3.33;2.38;;;;;;;26.83;42.43;101291.59;10475297;28;20475;-83
2021/08/03 15:07:13;;;;;;;3.30;2.22;;;;;;;26.74;40.08;101287.84;10497332;28;20112;-82
2021/08/03 15:12:13;;;;;;;2.63;1.90;;;;;;;26.33;41.03;101302.16;10462614;28;20048;-83
2021/08/03 15:17:14;;;;;;;2.35;2.25;;;;;;;25.05;40.35;101274.56;10498101;28;20063;-83
2021/08/03 15:22:15;;;;;;;9.77;3.08;;;;;;;25.43;41.99;101291.53;10466691;28;20087;-84
2021/08/03 15:27:15;;;;;;;19.05;2.90;;;;;;;25.66;41.65;101287.22;10468329;28;20135;-83
2021/08/03 15:32:15;;;;;;;3.17;2.88;;;;;;;24.95;45.72;101275.47;10500135;28;20032;-83
2021/08/03 15:37:16;;;;;;;2.67;2.40;;;;;;;24.42;45.79;101266.81;10500989;28;20154;-83
2021/08/03 15:42:17;;;;;;;6.28;2.35;;;;;;;22.87;46.75;101192.38;10483648;28;20084;-83
2021/08/03 15:47:19;;;;;;;3.22;3.03;;;;;;;22.73;47.38;101238.19;10449235;28;20051;-83
2021/08/03 15:52:19;;;;;;;3.65;3.05;;;;;;;22.53;48.51;101288.63;10498894;28;20357;-83
2021/08/03 15:57:19;;;;;;;3.45;2.78;;;;;;;22.68;49.78;101236.22;10480530;28;20462;-83
2021/08/03 16:02:20;;;;;;;3.95;3.40;;;;;;;23.68;46.45;101290.38;10461575;28;20475;-83
2021/08/03 16:07:20;;;;;;;4.07;3.67;;;;;;;22.60;48.14;101216.63;10478426;28;20036;-82
2021/08/03 16:12:21;;;;;;;8.43;4.30;;;;;;;22.37;49.07;101218.72;10477388;28;20032;-83
2021/08/03 16:17:25;;;;;;;5.57;3.50;;;;;;;22.72;48.26;101291.75;10461565;28;20064;-83
2021/08/03 16:22:25;;;;;;;8.75;3.72;;;;;;;23.12;47.79;101284.72;10461467;28;20435;-82
2021/08/03 16:27:26;;;;;;;3.83;3.50;;;;;;;23.18;47.66;101272.59;10461085;28;20127;-83
2021/08/03 16:32:28;;;;;;;3.70;3.33;;;;;;;23.10;48.59;101297.97;10494752;28;20024;-83
2021/08/03 16:37:29;;;;;;;3.75;3.45;;;;;;;22.89;48.80;101297.06;10473871;28;20367;-82
2021/08/03 16:42:29;;;;;;;13.15;3.88;;;;;;;23.04;53.29;101304.59;10472516;28;20064;-83
2021/08/03 16:47:30;;;;;;;5.63;3.45;;;;;;;23.15;48.77;101256.56;10458873;28;20378;-83
2021/08/03 16:52:30;;;;;;;5.07;3.70;;;;;;;23.32;48.53;101272.88;10457320;28;20416;-83
2021/08/03 16:57:31;;;;;;;3.78;3.05;;;;;;;23.11;49.39;101294.97;10473624;28;20408;-83
2021/08/03 17:02:38;;;;;;;3.17;2.75;;;;;;;22.61;49.20;101204.47;10471375;28;20064;-83
2021/08/03 17:07:45;;;;;;;6.07;3.60;;;;;;;22.58;49.33;101203.06;10455551;28;20118;-83
2021/08/03 17:12:50;;;;;;;4.85;3.22;;;;;;;22.98;51.08;101296.31;10490778;28;20040;-82
2021/08/03 17:17:57;;;;;;;6.25;3.95;;;;;;;22.92;50.74;101299.28;10473295;28;20036;-82
2021/08/03 17:22:58;;;;;;;3.97;3.33;;;;;;;22.55;52.24;101253.28;10473756;28;20093;-82
2021/08/03 17:27:58;;;;;;;9.57;3.88;;;;;;;22.78;50.35;101298.94;10457853;28;20040;-83
2021/08/03 17:32:59;;;;;;;8.55;4.35;;;;;;;22.50;50.30;101270.66;10442399;28;20062;-83
2021/08/03 17:37:59;;;;;;;4.80;4.35;;;;;;;22.73;49.54;101304.44;10493292;28;20036;-83
2021/08/03 17:42:59;;;;;;;7.32;3.85;;;;;;;22.67;50.33;101303.59;10475362;28;20048;-82
2021/08/03 17:48:01;;;;;;;8.38;4.47;;;;;;;22.38;50.45;101274.75;10493394;28;20055;-82
2021/08/03 17:53:01;;;;;;;9.93;3.50;;;;;;;22.47;50.14;101279.47;10491270;28;20079;-82
2021/08/03 17:58:02;;;;;;;9.82;4.18;;;;;;;22.14;51.78;101321.16;10457543;28;20041;-83
2021/08/03 18:03:02;;;;;;;3.65;3.45;;;;;;;22.33;52.15;101322.44;10458157;28;20029;-83
2021/08/03 18:08:03;;;;;;;5.88;3.95;;;;;;;22.18;53.65;101327.88;10457824;28;20153;-82
2021/08/03 18:13:03;;;;;;;10.50;4.03;;;;;;;21.54;54.19;101298.34;10455379;28;20028;-83
2021/08/03 18:18:04;;;;;;;4.15;3.72;;;;;;;21.44;52.04;101331.28;10471325;28;20130;-82
2021/08/03 18:23:05;;;;;;;3.85;3.50;;;;;;;21.22;52.97;101325.78;10454988;28;20143;-83
2021/08/03 18:28:09;;;;;;;4.80;4.40;;;;;;;21.23;53.44;101336.56;10488687;28;20082;-83
2021/08/03 18:33:09;;;;;;;22.27;13.23;;;;;;;20.89;53.13;101308.34;10468997;28;20040;-83
2021/08/03 18:38:18;;;;;;;4.20;3.88;;;;;;;20.88;53.04;101334.22;10472927;28;20524;-82
2021/08/03 18:43:20;;;;;;;3.67;3.38;;;;;;;20.42;54.81;101314.28;10458543;28;20097;-82
2021/08/03 18:48:23;;;;;;;6.93;4.90;;;;;;;20.31;54.54;101343.56;10493246;28;20056;-83
2021/08/03 18:53:25;;;;;;;4.78;4.38;;;;;;;20.24;54.30;101342.06;10458247;28;20029;-82
2021/08/03 18:58:26;;;;;;;7.28;3.83;;;;;;;20.14;54.21;101332.56;10474175;28;20044;-82
2021/08/03 19:03:29;;;;;;;3.92;3.40;;;;;;;19.81;54.64;101299.56;10458218;28;20055;-82
2021/08/03 19:08:30;;;;;;;4.05;3.65;;;;;;;19.83;54.67;101344.16;10457877;28;20358;-82
2021/08/03 19:13:31;;;;;;;4.80;4.35;;;;;;;19.48;55.33;101339.63;10459023;28;20032;-82
2021/08/03 19:18:34;;;;;;;7.85;3.35;;;;;;;19.41;55.86;101355.44;10474350;28;20060;-82
2021/08/03 19:23:35;;;;;;;3.25;3.05;;;;;;;18.56;55.74;101236.22;10473352;28;20121;-82
2021/08/03 19:28:35;;;;;;;4.75;4.10;;;;;;;19.10;56.65;101356.75;10489721;28;20455;-81
2021/08/03 19:33:36;;;;;;;5.78;4.63;;;;;;;18.73;58.08;101349.66;10469407;28;20131;-81
2021/08/03 19:38:37;;;;;;;6.43;4.07;;;;;;;18.78;58.50;101368.13;10488555;28;20105;-82
2021/08/03 19:43:37;;;;;;;9.98;4.82;;;;;;;18.65;58.54;101365.63;10447388;28;20061;-83
2021/08/03 19:48:38;;;;;;;9.07;4.68;;;;;;;18.54;58.50;101362.66;10436197;28;20029;-83
2021/08/03 19:53:38;;;;;;;5.45;3.75;;;;;;;18.52;58.41;101385.91;10437882;28;20076;-83
2021/08/03 19:58:39;;;;;;;5.20;4.80;;;;;;;18.28;58.53;101380.41;10452545;28;20135;-82
2021/08/03 20:03:41;;;;;;;6.93;3.95;;;;;;;18.28;58.35;101394.13;10437172;28;20029;-82
2021/08/03 20:08:41;;;;;;;8.18;4.63;;;;;;;18.23;58.47;101390.41;10454639;28;20480;-82
2021/08/03 20:13:43;;;;;;;6.22;5.63;;;;;;;18.22;58.54;101400.56;10452882;28;20108;-82
2021/08/03 20:18:43;;;;;;;7.63;5.25;;;;;;;18.32;58.17;101400.81;10454184;28;20423;-83
2021/08/03 20:23:44;;;;;;;5.32;4.22;;;;;;;18.23;58.34;101388.50;10454470;28;20057;-81
2021/08/03 20:28:49;;;;;;;4.88;3.83;;;;;;;18.45;58.56;101402.47;10436894;28;20044;-82
2021/08/03 20:33:52;;;;;;;8.52;5.07;;;;;;;18.27;59.52;101377.91;10456318;28;20091;-81
2021/08/03 20:38:58;;;;;;;5.95;5.07;;;;;;;18.01;59.46;101325.19;10455542;28;20067;-82
2021/08/03 20:43:58;;;;;;;9.55;4.80;;;;;;;18.55;59.08;101416.44;10495578;28;20420;-81
2021/08/03 20:48:59;;;;;;;11.45;4.88;;;;;;;18.47;59.00;101388.50;10479115;28;20127;-82
2021/08/03 20:53:59;;;;;;;8.32;4.50;;;;;;;18.52;58.23;101394.97;10478247;28;20111;-82
2021/08/03 20:59:00;;;;;;;4.60;4.20;;;;;;;18.54;57.96;101403.78;10477930;28;20044;-82
2021/08/03 21:04:06;;;;;;;7.63;3.80;;;;;;;18.43;57.87;101406.53;10495609;28;20028;-82
2021/08/03 21:09:08;;;;;;;10.32;3.80;;;;;;;18.33;57.96;101416.16;10495066;28;20037;-82
2021/08/03 21:14:08;;;;;;;4.50;2.95;;;;;;;18.20;58.62;101408.16;10475404;28;20539;-81
2021/08/03 21:19:09;;;;;;;9.57;4.22;;;;;;;17.96;59.16;101396.31;10476137;28;20035;-82
2021/08/03 21:24:09;;;;;;;6.05;3.97;;;;;;;18.04;58.86;101415.16;10475331;28;20036;-82
2021/08/03 21:29:10;;;;;;;3.95;3.58;;;;;;;17.93;59.65;101415.13;10476159;28;20063;-83
2021/08/03 21:34:10;;;;;;;6.72;3.30;;;;;;;17.99;59.48;101416.94;10475213;28;20083;-83
2021/08/03 21:39:11;;;;;;;2.53;2.33;;;;;;;18.00;59.41;101418.63;10474574;28;20503;-83
2021/08/03 21:44:11;;;;;;;4.03;3.63;;;;;;;17.72;59.12;101367.16;10493459;28;20041;-83
2021/08/03 21:49:12;;;;;;;5.57;4.18;;;;;;;17.95;59.49;101410.25;10475198;28;20424;-82
2021/08/03 21:54:13;;;;;;;3.75;3.47;;;;;;;17.86;59.22;101418.78;10439904;28;20043;-83
2021/08/03 21:59:13;;;;;;;3.72;3.28;;;;;;;17.76;59.25;101415.75;10471422;28;20061;-83
2021/08/03 22:04:14;;;;;;;8.20;3.30;;;;;;;17.31;59.34;101366.88;10455615;28;20063;-83
2021/08/03 22:09:14;;;;;;;3.90;3.45;;;;;;;17.58;59.35;101413.06;10490976;28;20094;-83
2021/08/03 22:14:15;;;;;;;4.10;3.65;;;;;;;17.42;59.00;101392.63;10480736;28;20032;-83
2021/08/03 22:19:15;;;;;;;4.15;3.70;;;;;;;17.47;58.94;101424.81;10500062;28;20039;-82
2021/08/03 22:24:16;;;;;;;4.18;3.78;;;;;;;17.34;58.65;101417.59;10466557;28;20115;-83
2021/08/03 22:29:17;;;;;;;4.85;3.65;;;;;;;17.23;59.07;101413.75;10464866;28;20438;-83
2021/08/03 22:34:17;;;;;;;8.05;4.53;;;;;;;17.04;59.33;101401.97;10481976;28;20378;-83
2021/08/03 22:39:18;;;;;;;3.00;2.72;;;;;;;16.94;59.28;101394.28;10462511;28;20121;-82
2021/08/03 22:44:18;;;;;;;3.40;3.08;;;;;;;16.98;59.40;101421.19;10464660;28;20036;-83
2021/08/03 22:49:18;;;;;;;10.23;3.72;;;;;;;16.95;59.94;101408.81;10481664;28;20048;-82
2021/08/03 22:54:19;;;;;;;6.72;3.75;;;;;;;17.11;60.18;101416.41;10480859;28;20048;-82
2021/08/03 22:59:19;;;;;;;4.20;3.38;;;;;;;17.17;60.28;101417.41;10464693;28;20119;-82
2021/08/03 23:04:20;;;;;;;3.60;3.30;;;;;;;17.34;59.97;101402.00;10498665;28;20123;-82
2021/08/03 23:09:21;;;;;;;5.35;3.97;;;;;;;17.34;59.66;101388.31;10480710;28;20436;-83